createdAt,value
2018-11-28T00:09:55.950Z,4.01
2018-11-28T00:25:00.282Z,3.99
2018-11-28T00:40:07.215Z,3.94
2018-11-28T00:55:15.620Z,4.14
2018-11-28T01:10:20.817Z,3.70
2018-11-28T01:25:28.664Z,3.47
2018-11-28T01:40:34.466Z,3.33
2018-11-28T01:55:38.868Z,2.92
2018-11-28T02:10:43.088Z,2.86
2018-11-28T02:25:47.389Z,2.88
2018-11-28T02:40:51.659Z,2.32
2018-11-28T02:55:56.818Z,1.58
2018-11-28T03:11:01.708Z,1.10
2018-11-28T03:26:06.404Z,1.01
2018-11-28T03:41:10.571Z,1.03
2018-11-28T03:56:15.536Z,0.96
2018-11-28T04:11:20.674Z,1.25
2018-11-28T04:26:25.389Z,1.19
2018-11-28T04:41:30.145Z,0.74
2018-11-28T04:56:34.310Z,0.78
2018-11-28T05:11:39.943Z,1.03
2018-11-28T05:26:47.367Z,0.99
2018-11-28T05:41:51.540Z,0.78
2018-11-28T05:56:56.179Z,0.52
2018-11-28T06:12:00.249Z,0.47
2018-11-28T06:27:05.566Z,0.17
2018-11-28T06:42:09.818Z,0.12
2018-11-28T06:57:14.223Z,0.19
2018-11-28T07:12:19.393Z,0.22
2018-11-28T07:27:23.798Z,0.70
2018-11-28T07:42:28.434Z,1.16
2018-11-28T07:57:32.834Z,0.56
2018-11-28T08:12:37.053Z,0.28
2018-11-28T08:27:43.410Z,0.23
2018-11-28T08:42:48.010Z,0.32
2018-11-28T08:57:53.185Z,0.45
2018-11-28T09:13:03.779Z,1.14
2018-11-28T09:28:02.736Z,1.54
2018-11-28T09:43:10.312Z,2.12
2018-11-28T09:58:14.621Z,0.74
2018-11-28T10:13:18.685Z,0.30
2018-11-28T10:28:24.401Z,1.02
2018-11-28T10:43:28.957Z,1.73
2018-11-28T10:58:33.015Z,0.49
2018-11-28T11:13:43.087Z,0.47
2018-11-28T11:28:47.435Z,1.26
2018-11-28T11:43:51.473Z,1.41
2018-11-28T11:58:57.283Z,1.04
2018-11-28T12:14:01.505Z,0.94
2018-11-28T12:29:06.564Z,0.46
2018-11-28T12:44:11.285Z,0.67
2018-11-28T12:59:15.564Z,0.64
2018-11-28T13:14:19.974Z,-0.30
2018-11-28T13:29:26.606Z,-0.05
2018-11-28T13:44:30.811Z,-0.60
2018-11-28T13:59:35.084Z,-1.06
2018-11-28T14:14:39.290Z,-1.05
2018-11-28T14:29:44.026Z,-1.32
2018-11-28T14:44:52.576Z,-1.32
2018-11-28T14:59:58.218Z,-1.97
2018-11-28T15:15:03.936Z,-2.34
2018-11-28T15:30:10.343Z,-2.19
2018-11-28T15:45:15.655Z,-2.58
2018-11-28T16:00:26.676Z,-2.34
2018-11-28T16:15:36.210Z,-2.61
2018-11-28T16:30:40.439Z,-2.46
2018-11-28T16:45:44.945Z,-1.98
2018-11-28T17:00:51.504Z,-2.28
2018-11-28T17:15:56.101Z,-3.10
2018-11-28T17:31:00.602Z,-3.12
2018-11-28T17:46:05.394Z,-3.34
2018-11-28T18:01:10.739Z,-3.22
2018-11-28T18:16:15.138Z,-3.31
2018-11-28T18:31:20.465Z,-3.29
2018-11-28T18:46:25.860Z,-3.33
2018-11-28T19:01:30.331Z,-3.33
2018-11-28T19:16:37.835Z,-3.51
2018-11-28T19:31:39.272Z,-3.16
2018-11-28T19:46:43.851Z,-3.33
2018-11-28T20:01:48.362Z,-3.04
2018-11-28T20:16:52.692Z,-3.05
2018-11-28T20:31:57.278Z,-3.19
2018-11-28T20:47:04.212Z,-3.32
2018-11-28T21:02:07.221Z,-3.68
2018-11-28T21:17:12.290Z,-4.04
2018-11-28T21:32:18.237Z,-4.20
2018-11-28T21:47:23.535Z,-4.04
2018-11-28T22:02:31.231Z,-4.07
2018-11-28T22:17:36.198Z,-4.11
2018-11-28T22:32:40.438Z,-4.03
2018-11-28T22:47:48.002Z,-3.95
2018-11-28T23:02:58.406Z,-4.14
2018-11-28T23:18:03.013Z,-4.04
2018-11-28T23:33:20.092Z,-4.02
2018-11-28T23:48:24.238Z,-4.24
